< < Back
Terminal Aerodrome Forecast


Current Version              Previous Versions:   1  2  3  4  5  6  7  8  9  

Terminal Aerodrome Forecast

917
FTUS42 KILM 271410 AAA
TAFFLO
TAF AMD
KFLO 271410Z 2714/2812 06004KT P6SM SCT018
      TEMPO 2714/2715 BKN018
     FM271800 11007KT P6SM SCT030
     FM280300 VRB03KT P6SM FEW060 SCT150
      TEMPO 2809/2812 3SM BR=

Latest METAR

989
SAUS70 KWBC 280100 RRD
MTRFLO
METAR KFLO 280053Z 15005KT 10SM CLR 29/22 A2996 RMK AO2 SLP142
T02890222


USA.gov is the U.S. government's official web portal to all federal, state and local government web resources and services.